Terminal Aerodrome Forecast
Issued by NWS

Home | Current Version | Previous Version | Text Only | Print | Product List | Glossary On
Versions: 1 2 3 4 5 6 7 8 9 10 11 12 13 14 15 16 17 18 19 20 21 22 23 24 25 26 27
000
FTUS43 KGRB 301700
TAFRHI
TAF
KRHI 301727Z 3018/0118 09007KT P6SM BKN012
      TEMPO 3018/3020 SCT012
     FM302000 10005KT P6SM SCT020 SCT250
     FM010400 13004KT P6SM BKN012
     FM010800 15004KT P6SM SCT006 OVC012
     FM011500 15007KT P6SM VCSH BKN015 OVC040=

USA.gov is the U.S. government's official web portal to all federal, state and local government web resources and services.